sensor_id;sensor_type;location;lat;lon;timestamp;P1;durP1;ratioP1;P2;durP2;ratioP2
81629;SDS011;71039;49.500;10.418;2024-03-23T00:52:20;2.67;;;2.42;;
81629;SDS011;71039;49.500;10.418;2024-03-23T00:54:46;2.85;;;2.65;;
81629;SDS011;71039;49.500;10.418;2024-03-23T00:57:12;2.63;;;2.47;;
81629;SDS011;71039;49.500;10.418;2024-03-23T00:59:37;3.08;;;2.88;;
81629;SDS011;71039;49.500;10.418;2024-03-23T01:02:03;2.50;;;2.30;;
81629;SDS011;71039;49.500;10.418;2024-03-23T01:04:28;2.83;;;2.72;;
81629;SDS011;71039;49.500;10.418;2024-03-23T01:06:54;2.92;;;2.72;;
81629;SDS011;71039;49.500;10.418;2024-03-23T01:09:19;2.80;;;2.60;;
81629;SDS011;71039;49.500;10.418;2024-03-23T01:11:45;2.25;;;2.15;;
81629;SDS011;71039;49.500;10.418;2024-03-23T01:14:10;2.70;;;2.50;;
81629;SDS011;71039;49.500;10.418;2024-03-23T01:16:36;2.20;;;2.10;;
81629;SDS011;71039;49.500;10.418;2024-03-23T01:19:01;2.53;;;2.30;;
81629;SDS011;71039;49.500;10.418;2024-03-23T01:21:27;2.67;;;2.47;;
81629;SDS011;71039;49.500;10.418;2024-03-23T01:23:52;3.15;;;2.95;;
81629;SDS011;71039;49.500;10.418;2024-03-23T01:26:18;1.92;;;1.83;;
81629;SDS011;71039;49.500;10.418;2024-03-23T01:28:43;2.17;;;2.08;;
81629;SDS011;71039;49.500;10.418;2024-03-23T01:31:09;2.65;;;2.45;;
81629;SDS011;71039;49.500;10.418;2024-03-23T01:33:34;2.13;;;2.00;;
81629;SDS011;71039;49.500;10.418;2024-03-23T01:36:00;2.47;;;2.28;;
81629;SDS011;71039;49.500;10.418;2024-03-23T01:38:25;2.33;;;2.13;;
81629;SDS011;71039;49.500;10.418;2024-03-23T01:40:56;2.70;;;2.50;;
81629;SDS011;71039;49.500;10.418;2024-03-23T01:43:22;3.63;;;3.00;;
81629;SDS011;71039;49.500;10.418;2024-03-23T01:45:47;2.92;;;2.72;;
81629;SDS011;71039;49.500;10.418;2024-03-23T01:48:13;3.42;;;3.13;;
81629;SDS011;71039;49.500;10.418;2024-03-23T01:50:38;2.53;;;2.33;;
81629;SDS011;71039;49.500;10.418;2024-03-23T01:53:04;2.83;;;2.63;;
81629;SDS011;71039;49.500;10.418;2024-03-23T01:55:30;2.72;;;2.53;;
81629;SDS011;71039;49.500;10.418;2024-03-23T01:57:57;2.63;;;2.45;;
81629;SDS011;71039;49.500;10.418;2024-03-23T02:00:22;2.78;;;2.50;;
81629;SDS011;71039;49.500;10.418;2024-03-23T02:02:48;2.17;;;2.03;;
81629;SDS011;71039;49.500;10.418;2024-03-23T02:05:14;3.33;;;3.08;;
81629;SDS011;71039;49.500;10.418;2024-03-23T02:07:40;3.63;;;3.42;;
81629;SDS011;71039;49.500;10.418;2024-03-23T02:10:07;2.75;;;2.55;;
81629;SDS011;71039;49.500;10.418;2024-03-23T02:12:33;3.55;;;2.83;;
81629;SDS011;71039;49.500;10.418;2024-03-23T02:14:59;3.10;;;2.90;;
81629;SDS011;71039;49.500;10.418;2024-03-23T02:17:25;2.95;;;2.72;;
81629;SDS011;71039;49.500;10.418;2024-03-23T02:19:50;2.22;;;2.13;;
81629;SDS011;71039;49.500;10.418;2024-03-23T02:22:16;2.53;;;2.33;;
81629;SDS011;71039;49.500;10.418;2024-03-23T02:24:42;3.08;;;2.88;;
81629;SDS011;71039;49.500;10.418;2024-03-23T02:27:08;2.35;;;2.15;;
81629;SDS011;71039;49.500;10.418;2024-03-23T02:29:34;2.80;;;2.55;;
81629;SDS011;71039;49.500;10.418;2024-03-23T02:31:59;3.47;;;2.15;;
81629;SDS011;71039;49.500;10.418;2024-03-23T02:34:25;2.53;;;2.33;;
81629;SDS011;71039;49.500;10.418;2024-03-23T02:36:51;3.70;;;2.22;;
81629;SDS011;71039;49.500;10.418;2024-03-23T02:39:16;2.95;;;2.72;;
81629;SDS011;71039;49.500;10.418;2024-03-23T02:41:41;3.30;;;3.05;;
81629;SDS011;71039;49.500;10.418;2024-03-23T02:44:07;3.53;;;2.88;;
81629;SDS011;71039;49.500;10.418;2024-03-23T02:46:33;2.15;;;2.03;;
81629;SDS011;71039;49.500;10.418;2024-03-23T02:48:58;3.75;;;3.55;;
81629;SDS011;71039;49.500;10.418;2024-03-23T02:51:24;2.40;;;2.20;;
81629;SDS011;71039;49.500;10.418;2024-03-23T02:53:49;2.63;;;2.47;;
81629;SDS011;71039;49.500;10.418;2024-03-23T02:56:15;3.88;;;3.58;;
81629;SDS011;71039;49.500;10.418;2024-03-23T02:58:40;2.63;;;2.42;;
81629;SDS011;71039;49.500;10.418;2024-03-23T03:01:06;2.28;;;2.17;;
81629;SDS011;71039;49.500;10.418;2024-03-23T03:03:31;2.70;;;2.15;;
81629;SDS011;71039;49.500;10.418;2024-03-23T03:05:57;2.17;;;2.08;;
81629;SDS011;71039;49.500;10.418;2024-03-23T03:08:22;2.25;;;2.15;;
81629;SDS011;71039;49.500;10.418;2024-03-23T03:10:48;2.72;;;2.53;;
81629;SDS011;71039;49.500;10.418;2024-03-23T03:13:14;4.70;;;1.95;;
81629;SDS011;71039;49.500;10.418;2024-03-23T03:15:45;2.20;;;2.08;;
81629;SDS011;71039;49.500;10.418;2024-03-23T03:18:11;1.73;;;1.63;;
81629;SDS011;71039;49.500;10.418;2024-03-23T03:20:38;2.47;;;2.28;;
81629;SDS011;71039;49.500;10.418;2024-03-23T03:23:04;2.70;;;2.53;;
81629;SDS011;71039;49.500;10.418;2024-03-23T03:25:29;2.47;;;2.38;;
81629;SDS011;71039;49.500;10.418;2024-03-23T03:27:55;3.15;;;2.95;;
81629;SDS011;71039;49.500;10.418;2024-03-23T03:30:20;2.63;;;2.42;;
81629;SDS011;71039;49.500;10.418;2024-03-23T03:32:46;2.03;;;1.92;;
81629;SDS011;71039;49.500;10.418;2024-03-23T03:35:11;2.63;;;2.53;;
81629;SDS011;71039;49.500;10.418;2024-03-23T03:37:37;2.97;;;2.25;;
81629;SDS011;71039;49.500;10.418;2024-03-23T03:40:02;1.80;;;1.70;;
81629;SDS011;71039;49.500;10.418;2024-03-23T03:42:28;2.15;;;2.00;;
81629;SDS011;71039;49.500;10.418;2024-03-23T03:44:53;2.58;;;2.40;;
81629;SDS011;71039;49.500;10.418;2024-03-23T03:47:19;1.65;;;1.55;;
81629;SDS011;71039;49.500;10.418;2024-03-23T03:49:45;2.10;;;1.90;;
81629;SDS011;71039;49.500;10.418;2024-03-23T03:52:10;2.55;;;2.45;;
81629;SDS011;71039;49.500;10.418;2024-03-23T03:54:35;1.67;;;1.58;;
81629;SDS011;71039;49.500;10.418;2024-03-23T03:57:01;2.15;;;2.03;;
81629;SDS011;71039;49.500;10.418;2024-03-23T03:59:27;2.45;;;2.35;;
81629;SDS011;71039;49.500;10.418;2024-03-23T04:01:52;2.67;;;2.58;;
81629;SDS011;71039;49.500;10.418;2024-03-23T04:04:18;3.25;;;3.05;;
81629;SDS011;71039;49.500;10.418;2024-03-23T04:06:43;2.20;;;2.00;;
81629;SDS011;71039;49.500;10.418;2024-03-23T04:09:09;2.78;;;2.10;;
81629;SDS011;71039;49.500;10.418;2024-03-23T04:11:34;1.85;;;1.75;;
81629;SDS011;71039;49.500;10.418;2024-03-23T04:14:00;2.72;;;2.53;;
81629;SDS011;71039;49.500;10.418;2024-03-23T04:16:26;2.40;;;2.30;;
81629;SDS011;71039;49.500;10.418;2024-03-23T04:18:58;1.83;;;1.73;;
81629;SDS011;71039;49.500;10.418;2024-03-23T04:21:24;1.88;;;1.73;;
81629;SDS011;71039;49.500;10.418;2024-03-23T04:23:49;4.43;;;1.70;;
81629;SDS011;71039;49.500;10.418;2024-03-23T04:26:15;2.55;;;2.35;;
81629;SDS011;71039;49.500;10.418;2024-03-23T04:28:41;1.42;;;1.33;;
81629;SDS011;71039;49.500;10.418;2024-03-23T04:31:06;2.70;;;2.60;;
81629;SDS011;71039;49.500;10.418;2024-03-23T04:33:32;1.65;;;1.55;;
81629;SDS011;71039;49.500;10.418;2024-03-23T04:35:57;2.17;;;2.08;;
81629;SDS011;71039;49.500;10.418;2024-03-23T04:38:23;1.45;;;1.35;;
81629;SDS011;71039;49.500;10.418;2024-03-23T04:40:58;2.20;;;2.00;;
81629;SDS011;71039;49.500;10.418;2024-03-23T04:43:25;2.13;;;2.00;;
81629;SDS011;71039;49.500;10.418;2024-03-23T04:45:51;1.90;;;1.80;;
81629;SDS011;71039;49.500;10.418;2024-03-23T04:48:19;1.90;;;1.80;;
81629;SDS011;71039;49.500;10.418;2024-03-23T04:50:46;2.05;;;1.25;;
81629;SDS011;71039;49.500;10.418;2024-03-23T04:53:12;2.22;;;2.03;;
81629;SDS011;71039;49.500;10.418;2024-03-23T04:55:38;1.50;;;1.40;;
81629;SDS011;71039;49.500;10.418;2024-03-23T04:58:03;2.67;;;2.47;;
81629;SDS011;71039;49.500;10.418;2024-03-23T05:00:29;1.85;;;1.75;;
81629;SDS011;71039;49.500;10.418;2024-03-23T05:02:54;2.10;;;2.00;;
81629;SDS011;71039;49.500;10.418;2024-03-23T05:05:20;1.75;;;1.65;;
81629;SDS011;71039;49.500;10.418;2024-03-23T05:07:45;2.28;;;2.03;;
81629;SDS011;71039;49.500;10.418;2024-03-23T05:10:11;2.25;;;2.08;;
81629;SDS011;71039;49.500;10.418;2024-03-23T05:12:37;2.40;;;2.30;;
81629;SDS011;71039;49.500;10.418;2024-03-23T05:15:03;1.95;;;1.85;;
81629;SDS011;71039;49.500;10.418;2024-03-23T05:17:29;1.60;;;1.58;;
81629;SDS011;71039;49.500;10.418;2024-03-23T05:19:56;2.15;;;2.05;;
81629;SDS011;71039;49.500;10.418;2024-03-23T05:22:21;2.63;;;2.42;;
81629;SDS011;71039;49.500;10.418;2024-03-23T05:24:47;1.80;;;1.70;;
81629;SDS011;71039;49.500;10.418;2024-03-23T05:27:12;2.47;;;2.00;;
81629;SDS011;71039;49.500;10.418;2024-03-23T05:29:38;1.92;;;1.83;;
81629;SDS011;71039;49.500;10.418;2024-03-23T05:32:03;2.10;;;2.00;;
81629;SDS011;71039;49.500;10.418;2024-03-23T05:34:29;1.83;;;1.73;;
81629;SDS011;71039;49.500;10.418;2024-03-23T05:36:54;2.15;;;2.05;;
81629;SDS011;71039;49.500;10.418;2024-03-23T05:39:20;2.22;;;2.10;;
81629;SDS011;71039;49.500;10.418;2024-03-23T05:41:45;2.03;;;1.92;;
81629;SDS011;71039;49.500;10.418;2024-03-23T05:44:11;2.72;;;1.50;;
81629;SDS011;71039;49.500;10.418;2024-03-23T05:46:36;1.90;;;1.80;;
81629;SDS011;71039;49.500;10.418;2024-03-23T05:49:02;2.80;;;2.60;;
81629;SDS011;71039;49.500;10.418;2024-03-23T05:51:27;2.13;;;2.03;;
81629;SDS011;71039;49.500;10.418;2024-03-23T05:53:53;2.67;;;2.47;;
81629;SDS011;71039;49.500;10.418;2024-03-23T05:56:19;2.75;;;2.55;;
81629;SDS011;71039;49.500;10.418;2024-03-23T05:58:45;2.70;;;2.50;;
81629;SDS011;71039;49.500;10.418;2024-03-23T06:01:10;4.90;;;4.60;;
81629;SDS011;71039;49.500;10.418;2024-03-23T06:03:36;2.58;;;2.38;;
81629;SDS011;71039;49.500;10.418;2024-03-23T06:06:01;2.50;;;2.20;;
81629;SDS011;71039;49.500;10.418;2024-03-23T06:08:27;2.85;;;2.65;;
81629;SDS011;71039;49.500;10.418;2024-03-23T06:10:52;2.05;;;1.95;;
81629;SDS011;71039;49.500;10.418;2024-03-23T06:13:18;3.17;;;2.60;;
81629;SDS011;71039;49.500;10.418;2024-03-23T06:15:43;3.30;;;3.00;;
81629;SDS011;71039;49.500;10.418;2024-03-23T06:18:09;2.58;;;2.38;;
81629;SDS011;71039;49.500;10.418;2024-03-23T06:20:34;2.45;;;2.25;;
81629;SDS011;71039;49.500;10.418;2024-03-23T06:23:00;3.42;;;2.58;;
81629;SDS011;71039;49.500;10.418;2024-03-23T06:25:26;2.92;;;2.63;;
81629;SDS011;71039;49.500;10.418;2024-03-23T06:27:52;2.85;;;2.60;;
81629;SDS011;71039;49.500;10.418;2024-03-23T06:30:17;2.70;;;2.50;;
81629;SDS011;71039;49.500;10.418;2024-03-23T06:32:43;2.72;;;2.53;;
81629;SDS011;71039;49.500;10.418;2024-03-23T06:35:08;2.55;;;2.35;;
81629;SDS011;71039;49.500;10.418;2024-03-23T06:37:34;3.13;;;2.92;;
81629;SDS011;71039;49.500;10.418;2024-03-23T06:40:03;2.38;;;2.17;;
81629;SDS011;71039;49.500;10.418;2024-03-23T06:42:29;3.05;;;2.85;;
81629;SDS011;71039;49.500;10.418;2024-03-23T06:44:54;2.53;;;2.22;;
81629;SDS011;71039;49.500;10.418;2024-03-23T06:47:19;3.20;;;3.00;;
81629;SDS011;71039;49.500;10.418;2024-03-23T06:49:45;2.05;;;1.85;;
81629;SDS011;71039;49.500;10.418;2024-03-23T06:52:10;3.22;;;2.95;;
81629;SDS011;71039;49.500;10.418;2024-03-23T06:54:36;2.70;;;2.42;;
81629;SDS011;71039;49.500;10.418;2024-03-23T06:57:01;1.95;;;1.85;;
81629;SDS011;71039;49.500;10.418;2024-03-23T06:59:27;2.15;;;2.03;;
81629;SDS011;71039;49.500;10.418;2024-03-23T07:01:52;2.45;;;2.33;;
81629;SDS011;71039;49.500;10.418;2024-03-23T07:04:18;2.20;;;2.10;;
81629;SDS011;71039;49.500;10.418;2024-03-23T07:06:44;2.58;;;2.38;;
81629;SDS011;71039;49.500;10.418;2024-03-23T07:09:10;2.85;;;2.65;;
81629;SDS011;71039;49.500;10.418;2024-03-23T07:11:36;2.47;;;2.28;;
81629;SDS011;71039;49.500;10.418;2024-03-23T07:14:02;3.10;;;2.90;;
81629;SDS011;71039;49.500;10.418;2024-03-23T07:16:27;2.97;;;2.67;;
81629;SDS011;71039;49.500;10.418;2024-03-23T07:18:53;2.30;;;2.10;;
81629;SDS011;71039;49.500;10.418;2024-03-23T07:21:19;2.65;;;2.45;;
81629;SDS011;71039;49.500;10.418;2024-03-23T07:23:44;3.30;;;3.10;;
81629;SDS011;71039;49.500;10.418;2024-03-23T07:26:10;2.92;;;2.72;;
81629;SDS011;71039;49.500;10.418;2024-03-23T07:28:36;2.80;;;2.58;;
81629;SDS011;71039;49.500;10.418;2024-03-23T07:31:02;2.55;;;2.35;;
81629;SDS011;71039;49.500;10.418;2024-03-23T07:33:31;2.70;;;2.50;;
81629;SDS011;71039;49.500;10.418;2024-03-23T07:35:57;3.00;;;2.80;;
81629;SDS011;71039;49.500;10.418;2024-03-23T07:38:23;2.88;;;2.67;;
81629;SDS011;71039;49.500;10.418;2024-03-23T07:40:49;2.88;;;2.60;;
81629;SDS011;71039;49.500;10.418;2024-03-23T07:43:14;1.85;;;1.75;;
81629;SDS011;71039;49.500;10.418;2024-03-23T07:45:40;3.15;;;2.95;;
81629;SDS011;71039;49.500;10.418;2024-03-23T07:48:05;2.55;;;2.35;;
81629;SDS011;71039;49.500;10.418;2024-03-23T07:50:31;2.33;;;2.22;;
81629;SDS011;71039;49.500;10.418;2024-03-23T07:52:57;1.92;;;1.83;;
81629;SDS011;71039;49.500;10.418;2024-03-23T07:55:22;1.90;;;1.80;;
81629;SDS011;71039;49.500;10.418;2024-03-23T07:57:48;1.83;;;1.73;;
81629;SDS011;71039;49.500;10.418;2024-03-23T08:00:15;1.80;;;1.70;;
81629;SDS011;71039;49.500;10.418;2024-03-23T08:02:41;1.65;;;1.55;;
81629;SDS011;71039;49.500;10.418;2024-03-23T08:05:07;1.65;;;1.65;;
81629;SDS011;71039;49.500;10.418;2024-03-23T08:07:32;1.92;;;1.83;;
81629;SDS011;71039;49.500;10.418;2024-03-23T08:09:58;1.88;;;1.33;;
81629;SDS011;71039;49.500;10.418;2024-03-23T08:12:23;3.20;;;1.95;;
81629;SDS011;71039;49.500;10.418;2024-03-23T08:14:49;1.95;;;1.85;;
81629;SDS011;71039;49.500;10.418;2024-03-23T08:17:14;1.70;;;1.65;;
81629;SDS011;71039;49.500;10.418;2024-03-23T08:19:40;1.92;;;1.83;;
81629;SDS011;71039;49.500;10.418;2024-03-23T08:22:05;1.55;;;1.55;;
81629;SDS011;71039;49.500;10.418;2024-03-23T08:24:31;1.30;;;1.30;;
81629;SDS011;71039;49.500;10.418;2024-03-23T08:26:56;1.55;;;1.55;;
81629;SDS011;71039;49.500;10.418;2024-03-23T08:29:22;1.65;;;1.65;;
81629;SDS011;71039;49.500;10.418;2024-03-23T08:31:47;1.83;;;1.77;;
81629;SDS011;71039;49.500;10.418;2024-03-23T08:34:13;2.00;;;1.90;;
81629;SDS011;71039;49.500;10.418;2024-03-23T08:36:38;1.13;;;1.13;;
81629;SDS011;71039;49.500;10.418;2024-03-23T08:39:04;0.85;;;0.85;;
81629;SDS011;71039;49.500;10.418;2024-03-23T08:41:29;2.17;;;2.08;;
81629;SDS011;71039;49.500;10.418;2024-03-23T08:43:55;1.48;;;1.48;;
81629;SDS011;71039;49.500;10.418;2024-03-23T08:46:20;1.33;;;1.30;;
81629;SDS011;71039;49.500;10.418;2024-03-23T08:48:46;1.10;;;1.10;;
81629;SDS011;71039;49.500;10.418;2024-03-23T08:51:13;2.08;;;1.98;;
81629;SDS011;71039;49.500;10.418;2024-03-23T08:53:39;0.75;;;0.75;;
81629;SDS011;71039;49.500;10.418;2024-03-23T08:56:05;1.92;;;1.92;;
81629;SDS011;71039;49.500;10.418;2024-03-23T08:58:32;1.23;;;1.23;;
81629;SDS011;71039;49.500;10.418;2024-03-23T09:03:33;1.25;;;1.25;;
81629;SDS011;71039;49.500;10.418;2024-03-23T09:05:59;1.08;;;1.08;;
81629;SDS011;71039;49.500;10.418;2024-03-23T09:08:24;1.75;;;1.75;;
81629;SDS011;71039;49.500;10.418;2024-03-23T09:10:51;1.33;;;1.33;;
81629;SDS011;71039;49.500;10.418;2024-03-23T09:13:17;1.95;;;1.95;;
81629;SDS011;71039;49.500;10.418;2024-03-23T09:15:50;1.38;;;1.38;;
81629;SDS011;71039;49.500;10.418;2024-03-23T09:18:16;1.85;;;1.85;;
81629;SDS011;71039;49.500;10.418;2024-03-23T09:20:42;1.42;;;1.42;;
81629;SDS011;71039;49.500;10.418;2024-03-23T09:23:08;1.45;;;1.45;;
81629;SDS011;71039;49.500;10.418;2024-03-23T09:25:37;1.50;;;1.50;;
81629;SDS011;71039;49.500;10.418;2024-03-23T09:28:03;0.98;;;0.98;;
81629;SDS011;71039;49.500;10.418;2024-03-23T09:30:28;1.25;;;1.25;;
81629;SDS011;71039;49.500;10.418;2024-03-23T09:32:54;0.95;;;0.95;;
81629;SDS011;71039;49.500;10.418;2024-03-23T09:35:19;0.75;;;0.75;;
81629;SDS011;71039;49.500;10.418;2024-03-23T09:37:45;0.90;;;0.90;;
81629;SDS011;71039;49.500;10.418;2024-03-23T09:40:11;1.50;;;1.50;;
81629;SDS011;71039;49.500;10.418;2024-03-23T09:42:37;0.88;;;0.88;;
81629;SDS011;71039;49.500;10.418;2024-03-23T09:45:04;1.00;;;1.00;;
81629;SDS011;71039;49.500;10.418;2024-03-23T09:47:31;1.40;;;1.40;;
81629;SDS011;71039;49.500;10.418;2024-03-23T09:49:58;1.63;;;1.63;;
81629;SDS011;71039;49.500;10.418;2024-03-23T09:52:25;1.90;;;1.80;;
81629;SDS011;71039;49.500;10.418;2024-03-23T09:54:50;1.63;;;1.63;;
81629;SDS011;71039;49.500;10.418;2024-03-23T09:57:16;1.65;;;1.65;;
81629;SDS011;71039;49.500;10.418;2024-03-23T09:59:41;1.38;;;1.10;;
81629;SDS011;71039;49.500;10.418;2024-03-23T10:02:07;1.70;;;1.70;;
81629;SDS011;71039;49.500;10.418;2024-03-23T10:04:36;1.50;;;1.50;;
81629;SDS011;71039;49.500;10.418;2024-03-23T10:07:12;1.38;;;1.38;;
81629;SDS011;71039;49.500;10.418;2024-03-23T10:09:43;1.33;;;1.33;;
81629;SDS011;71039;49.500;10.418;2024-03-23T10:12:09;1.30;;;1.30;;
81629;SDS011;71039;49.500;10.418;2024-03-23T10:14:38;1.33;;;1.33;;
81629;SDS011;71039;49.500;10.418;2024-03-23T10:17:22;2.22;;;2.13;;
81629;SDS011;71039;49.500;10.418;2024-03-23T10:19:49;1.55;;;1.45;;
81629;SDS011;71039;49.500;10.418;2024-03-23T10:22:19;1.88;;;1.73;;
81629;SDS011;71039;49.500;10.418;2024-03-23T10:24:45;1.75;;;1.65;;
81629;SDS011;71039;49.500;10.418;2024-03-23T10:27:18;1.70;;;1.33;;
81629;SDS011;71039;49.500;10.418;2024-03-23T10:29:45;1.38;;;1.38;;
81629;SDS011;71039;49.500;10.418;2024-03-23T10:32:11;1.50;;;1.40;;
81629;SDS011;71039;49.500;10.418;2024-03-23T10:34:37;1.40;;;1.38;;
81629;SDS011;71039;49.500;10.418;2024-03-23T10:37:03;1.48;;;1.38;;
81629;SDS011;71039;49.500;10.418;2024-03-23T10:39:33;1.20;;;1.20;;
81629;SDS011;71039;49.500;10.418;2024-03-23T10:44:30;1.25;;;1.25;;
81629;SDS011;71039;49.500;10.418;2024-03-23T10:46:56;1.08;;;1.08;;
81629;SDS011;71039;49.500;10.418;2024-03-23T10:49:29;1.15;;;1.15;;
81629;SDS011;71039;49.500;10.418;2024-03-23T10:52:05;1.45;;;0.93;;
81629;SDS011;71039;49.500;10.418;2024-03-23T10:54:31;1.90;;;1.70;;
81629;SDS011;71039;49.500;10.418;2024-03-23T10:57:05;1.85;;;1.75;;
81629;SDS011;71039;49.500;10.418;2024-03-23T10:59:34;1.02;;;1.02;;
81629;SDS011;71039;49.500;10.418;2024-03-23T11:02:02;0.98;;;0.98;;
81629;SDS011;71039;49.500;10.418;2024-03-23T11:04:34;1.10;;;1.10;;
81629;SDS011;71039;49.500;10.418;2024-03-23T11:09:48;1.90;;;1.80;;
81629;SDS011;71039;49.500;10.418;2024-03-23T11:14:49;1.48;;;1.38;;
81629;SDS011;71039;49.500;10.418;2024-03-23T11:17:23;1.75;;;1.65;;
81629;SDS011;71039;49.500;10.418;2024-03-23T11:19:52;1.65;;;1.55;;
81629;SDS011;71039;49.500;10.418;2024-03-23T11:25:03;1.40;;;1.27;;
81629;SDS011;71039;49.500;10.418;2024-03-23T11:27:29;1.20;;;1.10;;
81629;SDS011;71039;49.500;10.418;2024-03-23T11:29:54;1.50;;;1.25;;
81629;SDS011;71039;49.500;10.418;2024-03-23T11:32:38;1.52;;;1.42;;
81629;SDS011;71039;49.500;10.418;2024-03-23T11:35:03;2.33;;;1.35;;
81629;SDS011;71039;49.500;10.418;2024-03-23T11:37:29;1.40;;;1.27;;
81629;SDS011;71039;49.500;10.418;2024-03-23T11:39:55;2.10;;;1.40;;
81629;SDS011;71039;49.500;10.418;2024-03-23T11:42:20;1.60;;;1.15;;
81629;SDS011;71039;49.500;10.418;2024-03-23T11:44:46;1.52;;;1.40;;
81629;SDS011;71039;49.500;10.418;2024-03-23T11:47:11;1.65;;;1.55;;
81629;SDS011;71039;49.500;10.418;2024-03-23T11:49:37;1.92;;;1.52;;
81629;SDS011;71039;49.500;10.418;2024-03-23T11:52:02;3.30;;;1.65;;
81629;SDS011;71039;49.500;10.418;2024-03-23T11:54:28;1.25;;;1.15;;
81629;SDS011;71039;49.500;10.418;2024-03-23T11:59:30;1.60;;;1.50;;
81629;SDS011;71039;49.500;10.418;2024-03-23T12:01:59;2.35;;;2.00;;
81629;SDS011;71039;49.500;10.418;2024-03-23T12:04:28;3.03;;;1.98;;
81629;SDS011;71039;49.500;10.418;2024-03-23T12:07:13;1.83;;;1.73;;
81629;SDS011;71039;49.500;10.418;2024-03-23T12:09:40;1.67;;;1.58;;
81629;SDS011;71039;49.500;10.418;2024-03-23T12:12:16;1.98;;;1.88;;
81629;SDS011;71039;49.500;10.418;2024-03-23T12:14:45;1.50;;;1.40;;
81629;SDS011;71039;49.500;10.418;2024-03-23T12:17:29;2.05;;;1.95;;
81629;SDS011;71039;49.500;10.418;2024-03-23T12:19:55;1.55;;;1.50;;
81629;SDS011;71039;49.500;10.418;2024-03-23T12:22:21;2.05;;;1.85;;
81629;SDS011;71039;49.500;10.418;2024-03-23T12:24:47;1.60;;;1.50;;
81629;SDS011;71039;49.500;10.418;2024-03-23T12:27:12;1.55;;;1.42;;
81629;SDS011;71039;49.500;10.418;2024-03-23T12:29:38;1.73;;;1.63;;
81629;SDS011;71039;49.500;10.418;2024-03-23T12:32:04;2.30;;;1.83;;
81629;SDS011;71039;49.500;10.418;2024-03-23T12:34:29;2.10;;;1.77;;
81629;SDS011;71039;49.500;10.418;2024-03-23T12:36:55;1.70;;;1.60;;
81629;SDS011;71039;49.500;10.418;2024-03-23T12:39:21;1.85;;;1.65;;
81629;SDS011;71039;49.500;10.418;2024-03-23T12:41:47;1.75;;;1.55;;
81629;SDS011;71039;49.500;10.418;2024-03-23T12:44:13;1.45;;;1.27;;
81629;SDS011;71039;49.500;10.418;2024-03-23T12:46:39;1.90;;;1.80;;
81629;SDS011;71039;49.500;10.418;2024-03-23T12:49:05;1.00;;;1.00;;
81629;SDS011;71039;49.500;10.418;2024-03-23T12:51:30;1.08;;;0.98;;
81629;SDS011;71039;49.500;10.418;2024-03-23T12:53:56;1.83;;;1.08;;
81629;SDS011;71039;49.500;10.418;2024-03-23T12:56:21;1.92;;;1.70;;
81629;SDS011;71039;49.500;10.418;2024-03-23T12:58:47;1.23;;;1.23;;
81629;SDS011;71039;49.500;10.418;2024-03-23T13:01:12;1.65;;;1.55;;
81629;SDS011;71039;49.500;10.418;2024-03-23T13:03:38;1.00;;;0.98;;
81629;SDS011;71039;49.500;10.418;2024-03-23T13:06:03;1.75;;;1.65;;
81629;SDS011;71039;49.500;10.418;2024-03-23T13:08:29;2.15;;;1.58;;
81629;SDS011;71039;49.500;10.418;2024-03-23T13:10:54;1.52;;;1.42;;
81629;SDS011;71039;49.500;10.418;2024-03-23T13:13:20;1.98;;;1.73;;
81629;SDS011;71039;49.500;10.418;2024-03-23T13:15:51;2.05;;;1.95;;
81629;SDS011;71039;49.500;10.418;2024-03-23T13:18:17;1.23;;;1.13;;
81629;SDS011;71039;49.500;10.418;2024-03-23T13:20:42;2.22;;;1.05;;
81629;SDS011;71039;49.500;10.418;2024-03-23T13:23:08;1.77;;;1.67;;
81629;SDS011;71039;49.500;10.418;2024-03-23T13:25:33;3.00;;;1.63;;
81629;SDS011;71039;49.500;10.418;2024-03-23T13:27:59;1.77;;;1.40;;
81629;SDS011;71039;49.500;10.418;2024-03-23T13:30:24;7.45;;;1.67;;
81629;SDS011;71039;49.500;10.418;2024-03-23T13:32:50;1.10;;;1.10;;
81629;SDS011;71039;49.500;10.418;2024-03-23T13:35:15;2.53;;;1.67;;
81629;SDS011;71039;49.500;10.418;2024-03-23T13:37:41;1.95;;;1.10;;
81629;SDS011;71039;49.500;10.418;2024-03-23T13:40:07;1.45;;;1.08;;
81629;SDS011;71039;49.500;10.418;2024-03-23T13:42:33;2.90;;;1.30;;
81629;SDS011;71039;49.500;10.418;2024-03-23T13:44:58;2.28;;;1.60;;
81629;SDS011;71039;49.500;10.418;2024-03-23T13:47:24;1.65;;;1.50;;
81629;SDS011;71039;49.500;10.418;2024-03-23T13:49:49;1.70;;;1.58;;
81629;SDS011;71039;49.500;10.418;2024-03-23T13:52:15;1.30;;;1.20;;
81629;SDS011;71039;49.500;10.418;2024-03-23T13:54:40;2.20;;;1.10;;
81629;SDS011;71039;49.500;10.418;2024-03-23T13:57:06;1.27;;;1.15;;
81629;SDS011;71039;49.500;10.418;2024-03-23T13:59:31;0.93;;;0.93;;
81629;SDS011;71039;49.500;10.418;2024-03-23T14:01:57;2.10;;;1.90;;
81629;SDS011;71039;49.500;10.418;2024-03-23T14:04:22;1.75;;;1.45;;
81629;SDS011;71039;49.500;10.418;2024-03-23T14:06:48;1.40;;;1.30;;
81629;SDS011;71039;49.500;10.418;2024-03-23T14:09:13;2.38;;;1.73;;
81629;SDS011;71039;49.500;10.418;2024-03-23T14:11:39;1.40;;;1.30;;
81629;SDS011;71039;49.500;10.418;2024-03-23T14:14:05;1.45;;;1.20;;
81629;SDS011;71039;49.500;10.418;2024-03-23T14:16:31;5.70;;;2.03;;
81629;SDS011;71039;49.500;10.418;2024-03-23T14:18:57;1.25;;;1.02;;
81629;SDS011;71039;49.500;10.418;2024-03-23T14:21:22;2.38;;;1.90;;
81629;SDS011;71039;49.500;10.418;2024-03-23T14:23:48;1.90;;;1.80;;
81629;SDS011;71039;49.500;10.418;2024-03-23T14:26:14;1.00;;;1.00;;
81629;SDS011;71039;49.500;10.418;2024-03-23T14:28:39;1.50;;;1.40;;
81629;SDS011;71039;49.500;10.418;2024-03-23T14:31:05;1.98;;;1.80;;
81629;SDS011;71039;49.500;10.418;2024-03-23T14:33:30;2.22;;;2.13;;
81629;SDS011;71039;49.500;10.418;2024-03-23T14:35:56;3.45;;;3.15;;
81629;SDS011;71039;49.500;10.418;2024-03-23T14:38:21;2.78;;;2.67;;
81629;SDS011;71039;49.500;10.418;2024-03-23T14:40:47;1.50;;;1.40;;
81629;SDS011;71039;49.500;10.418;2024-03-23T14:43:13;1.60;;;1.50;;
81629;SDS011;71039;49.500;10.418;2024-03-23T14:45:45;1.77;;;1.67;;
81629;SDS011;71039;49.500;10.418;2024-03-23T14:48:34;2.55;;;1.92;;
81629;SDS011;71039;49.500;10.418;2024-03-23T14:51:00;2.58;;;2.42;;
81629;SDS011;71039;49.500;10.418;2024-03-23T14:53:26;2.17;;;1.38;;
81629;SDS011;71039;49.500;10.418;2024-03-23T14:55:54;2.10;;;2.00;;
81629;SDS011;71039;49.500;10.418;2024-03-23T14:58:19;2.40;;;1.95;;
81629;SDS011;71039;49.500;10.418;2024-03-23T15:00:45;1.63;;;1.52;;
81629;SDS011;71039;49.500;10.418;2024-03-23T15:03:10;1.63;;;1.60;;
81629;SDS011;71039;49.500;10.418;2024-03-23T15:05:36;2.00;;;2.00;;
81629;SDS011;71039;49.500;10.418;2024-03-23T15:08:02;2.03;;;1.92;;
81629;SDS011;71039;49.500;10.418;2024-03-23T15:10:27;1.88;;;1.77;;
81629;SDS011;71039;49.500;10.418;2024-03-23T15:12:53;2.20;;;2.10;;
81629;SDS011;71039;49.500;10.418;2024-03-23T15:15:18;1.45;;;1.45;;
81629;SDS011;71039;49.500;10.418;2024-03-23T15:17:44;2.17;;;1.63;;
81629;SDS011;71039;49.500;10.418;2024-03-23T15:20:10;1.65;;;1.65;;
81629;SDS011;71039;49.500;10.418;2024-03-23T15:22:36;2.55;;;1.67;;
81629;SDS011;71039;49.500;10.418;2024-03-23T15:25:01;2.08;;;1.80;;
81629;SDS011;71039;49.500;10.418;2024-03-23T15:27:27;1.90;;;1.80;;
81629;SDS011;71039;49.500;10.418;2024-03-23T15:29:52;1.65;;;1.55;;
81629;SDS011;71039;49.500;10.418;2024-03-23T15:32:17;1.27;;;1.27;;
81629;SDS011;71039;49.500;10.418;2024-03-23T15:34:43;1.02;;;0.98;;